createdAt,value
2018-11-02T00:00:03.193Z,0
2018-11-02T00:01:04.574Z,0
2018-11-02T00:02:05.976Z,0
2018-11-02T00:03:07.360Z,0
2018-11-02T00:04:08.856Z,0
2018-11-02T00:05:10.265Z,0
2018-11-02T00:06:11.693Z,0
2018-11-02T00:07:13.000Z,0
2018-11-02T00:08:14.387Z,0
2018-11-02T00:09:15.775Z,0
2018-11-02T00:10:17.157Z,0
2018-11-02T00:11:18.544Z,0
2018-11-02T00:12:19.939Z,0
2018-11-02T00:13:21.312Z,0
2018-11-02T00:14:22.698Z,0
2018-11-02T00:15:24.087Z,0
2018-11-02T00:16:25.487Z,0
2018-11-02T00:17:26.857Z,0
2018-11-02T00:18:28.242Z,0
2018-11-02T00:19:29.627Z,0
2018-11-02T00:20:31.009Z,0
2018-11-02T00:21:32.412Z,0
2018-11-02T00:22:33.784Z,0
2018-11-02T00:23:35.173Z,0
2018-11-02T00:24:36.559Z,0
2018-11-02T00:25:37.942Z,0
2018-11-02T00:26:39.329Z,0
2018-11-02T00:27:40.718Z,0
2018-11-02T00:28:42.106Z,0
2018-11-02T00:29:43.495Z,0
2018-11-02T00:30:44.883Z,0
2018-11-02T00:31:46.335Z,0
2018-11-02T00:32:47.657Z,0
2018-11-02T00:33:49.043Z,0
2018-11-02T00:34:50.429Z,0
2018-11-02T00:35:51.817Z,0
2018-11-02T00:36:53.207Z,0
2018-11-02T00:37:54.602Z,0
2018-11-02T00:38:55.985Z,0
2018-11-02T00:39:57.371Z,0
2018-11-02T00:40:58.748Z,0
2018-11-02T00:42:00.137Z,0
2018-11-02T00:43:01.527Z,0
2018-11-02T00:44:02.988Z,0
2018-11-02T00:45:04.304Z,0
2018-11-02T00:46:05.730Z,0
2018-11-02T00:47:07.076Z,0
2018-11-02T00:48:08.462Z,0
2018-11-02T00:49:09.849Z,0
2018-11-02T00:50:11.233Z,0
2018-11-02T00:51:12.619Z,0
2018-11-02T00:52:14.008Z,0
2018-11-02T00:53:16.366Z,0
2018-11-02T00:54:17.473Z,0
2018-11-02T00:55:18.860Z,0
2018-11-02T00:56:20.248Z,0
2018-11-02T00:57:21.634Z,0
2018-11-02T00:58:23.020Z,0
2018-11-02T00:59:24.412Z,0
2018-11-02T01:00:25.795Z,0
2018-11-02T01:01:27.181Z,0
2018-11-02T01:02:28.567Z,0
2018-11-02T01:03:29.953Z,0
2018-11-02T01:04:31.344Z,0
2018-11-02T01:05:33.584Z,0
2018-11-02T01:06:34.970Z,0
2018-11-02T01:07:36.359Z,0
2018-11-02T01:08:37.742Z,0
2018-11-02T01:09:39.163Z,0
2018-11-02T01:10:40.513Z,0
2018-11-02T01:11:41.902Z,0
2018-11-02T01:12:43.284Z,0
2018-11-02T01:13:44.673Z,0
2018-11-02T01:14:46.057Z,0
2018-11-02T01:15:47.446Z,0
2018-11-02T01:16:48.901Z,0
2018-11-02T01:17:50.846Z,0
2018-11-02T01:18:52.231Z,0
2018-11-02T01:19:53.650Z,0
2018-11-02T01:20:55.005Z,0
2018-11-02T01:21:56.391Z,0
2018-11-02T01:22:57.776Z,0
2018-11-02T01:23:59.163Z,0
2018-11-02T01:25:00.544Z,0
2018-11-02T01:26:01.935Z,0
2018-11-02T01:27:03.318Z,0
2018-11-02T01:28:04.704Z,0
2018-11-02T01:29:06.090Z,0
2018-11-02T01:30:07.473Z,0
2018-11-02T01:31:08.858Z,0
2018-11-02T01:32:10.243Z,0
2018-11-02T01:33:11.628Z,0
2018-11-02T01:34:13.018Z,0
2018-11-02T01:35:14.407Z,0
2018-11-02T01:36:15.790Z,0
2018-11-02T01:37:17.176Z,0
2018-11-02T01:38:18.559Z,0
2018-11-02T01:39:19.946Z,0
2018-11-02T01:40:21.389Z,0
2018-11-02T01:41:22.834Z,0
2018-11-02T01:42:24.258Z,0
2018-11-02T01:43:25.617Z,0
2018-11-02T01:44:26.993Z,0
2018-11-02T01:45:28.382Z,0
2018-11-02T01:46:29.768Z,0
2018-11-02T01:47:31.155Z,0
2018-11-02T01:48:32.550Z,0
2018-11-02T01:49:33.926Z,0
2018-11-02T01:50:35.314Z,0
2018-11-02T01:51:36.700Z,0
2018-11-02T01:52:38.084Z,0
2018-11-02T01:53:39.470Z,0
2018-11-02T01:54:40.862Z,0
2018-11-02T01:55:42.251Z,0
2018-11-02T01:56:43.640Z,0
2018-11-02T01:57:45.025Z,0
2018-11-02T01:58:46.403Z,0
2018-11-02T01:59:47.796Z,0
2018-11-02T02:00:49.181Z,0
2018-11-02T02:01:50.567Z,0
2018-11-02T02:02:51.956Z,0
2018-11-02T02:03:53.344Z,0
2018-11-02T02:04:54.732Z,0
2018-11-02T02:05:56.116Z,0
2018-11-02T02:06:57.502Z,0
2018-11-02T02:07:58.887Z,0
2018-11-02T02:09:00.281Z,0
2018-11-02T02:10:01.659Z,0
2018-11-02T02:11:03.046Z,0
2018-11-02T02:12:04.432Z,0
2018-11-02T02:13:05.878Z,0
2018-11-02T02:14:07.202Z,0
2018-11-02T02:15:08.588Z,0
2018-11-02T02:16:09.977Z,0
2018-11-02T02:17:11.362Z,0
2018-11-02T02:18:12.753Z,0
2018-11-02T02:19:14.138Z,0
2018-11-02T02:20:15.523Z,0
2018-11-02T02:21:16.912Z,0
2018-11-02T02:22:18.310Z,0
2018-11-02T02:23:19.684Z,0
2018-11-02T02:24:21.074Z,0
2018-11-02T02:25:22.462Z,0
2018-11-02T02:26:23.846Z,0
2018-11-02T02:27:25.234Z,0
2018-11-02T02:28:26.624Z,0
2018-11-02T02:29:28.016Z,0
2018-11-02T02:30:29.477Z,0
2018-11-02T02:31:30.874Z,0
2018-11-02T02:32:32.258Z,0
2018-11-02T02:33:33.646Z,0
2018-11-02T02:34:35.033Z,0
2018-11-02T02:35:36.414Z,0
2018-11-02T02:36:37.805Z,0
2018-11-02T02:37:39.187Z,0
2018-11-02T02:38:40.575Z,0
2018-11-02T02:39:41.963Z,0
2018-11-02T02:40:43.397Z,0
2018-11-02T02:41:44.731Z,0
2018-11-02T02:42:46.120Z,0
2018-11-02T02:43:47.506Z,0
2018-11-02T02:44:48.894Z,0
2018-11-02T02:45:50.282Z,0
2018-11-02T02:46:51.669Z,0
2018-11-02T02:47:53.060Z,0
2018-11-02T02:48:54.470Z,0
2018-11-02T02:49:55.818Z,0
2018-11-02T02:50:57.204Z,0
2018-11-02T02:51:58.595Z,0
2018-11-02T02:52:59.978Z,0
2018-11-02T02:54:01.367Z,0
2018-11-02T02:55:02.753Z,0
2018-11-02T02:56:04.137Z,0
2018-11-02T02:57:05.530Z,0
2018-11-02T02:58:06.941Z,0
2018-11-02T02:59:08.294Z,0
2018-11-02T03:00:09.680Z,0
2018-11-02T03:01:11.069Z,0
2018-11-02T03:02:12.452Z,0
2018-11-02T03:03:13.837Z,0
2018-11-02T03:04:15.224Z,0
2018-11-02T03:05:16.612Z,0
2018-11-02T03:06:17.994Z,0
2018-11-02T03:07:19.384Z,0
2018-11-02T03:08:20.769Z,0
2018-11-02T03:09:22.154Z,0
2018-11-02T03:10:23.578Z,0
2018-11-02T03:11:24.930Z,0
2018-11-02T03:12:26.317Z,0
2018-11-02T03:13:27.699Z,0
2018-11-02T03:14:29.101Z,0
2018-11-02T03:15:30.489Z,0
2018-11-02T03:16:31.874Z,0
2018-11-02T03:17:33.255Z,0
2018-11-02T03:18:34.708Z,0
2018-11-02T03:19:36.073Z,0
2018-11-02T03:20:37.488Z,0
2018-11-02T03:21:38.876Z,0
2018-11-02T03:22:40.319Z,0
2018-11-02T03:23:41.651Z,0
2018-11-02T03:24:43.032Z,0
2018-11-02T03:25:44.421Z,0
2018-11-02T03:26:45.803Z,0
2018-11-02T03:27:47.193Z,0
2018-11-02T03:28:48.577Z,0
2018-11-02T03:29:49.965Z,0
2018-11-02T03:30:51.350Z,0
2018-11-02T03:31:52.736Z,0
2018-11-02T03:32:54.122Z,0
2018-11-02T03:33:55.506Z,0
2018-11-02T03:34:56.895Z,0
2018-11-02T03:35:58.322Z,0
2018-11-02T03:36:59.673Z,0
2018-11-02T03:38:01.053Z,0
2018-11-02T03:39:02.442Z,0
2018-11-02T03:40:03.825Z,0
2018-11-02T03:41:05.213Z,0
2018-11-02T03:42:06.600Z,0
2018-11-02T03:43:07.986Z,0
2018-11-02T03:44:09.373Z,0
2018-11-02T03:45:10.759Z,0
2018-11-02T03:46:12.144Z,0
2018-11-02T03:47:13.529Z,0
2018-11-02T03:48:14.916Z,0
2018-11-02T03:49:16.302Z,0
2018-11-02T03:50:17.856Z,0
2018-11-02T03:51:19.252Z,0
2018-11-02T03:52:20.635Z,0
2018-11-02T03:53:22.019Z,0
2018-11-02T03:54:23.609Z,0
2018-11-02T03:55:25.005Z,0
2018-11-02T03:56:26.487Z,0
2018-11-02T03:57:27.870Z,0
2018-11-02T03:58:29.260Z,0
2018-11-02T03:59:30.644Z,0
2018-11-02T04:00:34.007Z,0
2018-11-02T04:01:35.351Z,0
2018-11-02T04:02:36.739Z,0
2018-11-02T04:03:38.128Z,0
2018-11-02T04:04:39.516Z,0
2018-11-02T04:05:40.939Z,0
2018-11-02T04:06:42.371Z,0
2018-11-02T04:07:43.764Z,0
2018-11-02T04:08:45.147Z,0
2018-11-02T04:09:46.612Z,0
2018-11-02T04:10:47.924Z,0
2018-11-02T04:11:49.313Z,0
2018-11-02T04:12:50.728Z,0
2018-11-02T04:13:52.081Z,0
2018-11-02T04:14:53.467Z,0
2018-11-02T04:15:54.854Z,0
2018-11-02T04:16:56.237Z,0
2018-11-02T04:17:57.621Z,0
2018-11-02T04:18:59.007Z,0
2018-11-02T04:20:00.391Z,0
2018-11-02T04:21:01.777Z,0
2018-11-02T04:22:03.161Z,0
2018-11-02T04:23:04.544Z,0
2018-11-02T04:24:05.928Z,0
2018-11-02T04:25:07.314Z,0
2018-11-02T04:26:08.701Z,0
2018-11-02T04:27:10.088Z,0
2018-11-02T04:28:11.469Z,0
2018-11-02T04:29:12.854Z,0
2018-11-02T04:30:14.239Z,0
2018-11-02T04:31:15.628Z,0
2018-11-02T04:32:17.013Z,0
2018-11-02T04:33:18.397Z,0
2018-11-02T04:34:19.782Z,0
2018-11-02T04:35:21.163Z,0
2018-11-02T04:36:22.548Z,0
2018-11-02T04:37:23.932Z,0
2018-11-02T04:38:25.316Z,0
2018-11-02T04:39:26.699Z,0
2018-11-02T04:40:28.084Z,0
2018-11-02T04:41:29.473Z,0
2018-11-02T04:42:30.859Z,0
2018-11-02T04:43:32.240Z,0
2018-11-02T04:44:33.625Z,0
2018-11-02T04:45:35.010Z,0
2018-11-02T04:46:36.395Z,0
2018-11-02T04:47:37.822Z,0
2018-11-02T04:48:39.172Z,0
2018-11-02T04:49:40.554Z,0
2018-11-02T04:50:41.950Z,0
2018-11-02T04:51:43.316Z,0
2018-11-02T04:52:44.699Z,0
2018-11-02T04:53:46.089Z,0
2018-11-02T04:54:47.471Z,0
2018-11-02T04:55:48.906Z,0
2018-11-02T04:56:50.363Z,0
2018-11-02T04:57:51.778Z,0
2018-11-02T04:58:53.159Z,0
2018-11-02T04:59:54.548Z,0
2018-11-02T05:00:55.927Z,0
2018-11-02T05:01:57.312Z,0
2018-11-02T05:02:58.699Z,0
2018-11-02T05:04:00.084Z,0
2018-11-02T05:05:01.469Z,0
2018-11-02T05:06:02.854Z,0
2018-11-02T05:07:04.235Z,0
2018-11-02T05:08:05.621Z,0
2018-11-02T05:09:07.017Z,0
2018-11-02T05:10:08.410Z,0
2018-11-02T05:11:09.809Z,0
2018-11-02T05:12:11.163Z,0
2018-11-02T05:13:12.543Z,0
2018-11-02T05:14:13.933Z,0
2018-11-02T05:15:15.320Z,0
2018-11-02T05:16:16.706Z,0
2018-11-02T05:17:18.094Z,0
2018-11-02T05:18:19.500Z,0
2018-11-02T05:19:20.885Z,0
2018-11-02T05:20:22.276Z,0
2018-11-02T05:21:23.804Z,0
2018-11-02T05:22:25.050Z,0
2018-11-02T05:23:26.433Z,0
2018-11-02T05:24:27.820Z,0
2018-11-02T05:25:29.204Z,0
2018-11-02T05:26:30.590Z,4
2018-11-02T05:27:31.975Z,4
2018-11-02T05:28:33.363Z,4
2018-11-02T05:29:34.749Z,4
2018-11-02T05:30:36.140Z,4
2018-11-02T05:31:37.591Z,4
2018-11-02T05:32:39.032Z,4
2018-11-02T05:33:40.415Z,4
2018-11-02T05:34:41.804Z,4
2018-11-02T05:35:43.191Z,4
2018-11-02T05:36:44.599Z,4
2018-11-02T05:37:45.984Z,4
2018-11-02T05:38:47.369Z,4
2018-11-02T05:39:48.754Z,4
2018-11-02T05:40:50.143Z,4
2018-11-02T05:41:51.526Z,4
2018-11-02T05:42:52.911Z,4
2018-11-02T05:43:54.298Z,4
2018-11-02T05:44:55.688Z,4
2018-11-02T05:45:57.167Z,4
2018-11-02T05:46:58.663Z,4
2018-11-02T05:48:00.016Z,4
2018-11-02T05:49:01.402Z,4
2018-11-02T05:50:02.785Z,4
2018-11-02T05:51:04.171Z,4
2018-11-02T05:52:05.573Z,4
2018-11-02T05:53:06.960Z,4
2018-11-02T05:54:08.411Z,0
2018-11-02T05:55:09.728Z,0
2018-11-02T05:56:11.113Z,0
2018-11-02T05:57:12.531Z,0
2018-11-02T05:58:13.884Z,0
2018-11-02T05:59:15.270Z,0
2018-11-02T06:00:16.656Z,0
2018-11-02T06:01:18.058Z,4
2018-11-02T06:02:19.482Z,4
2018-11-02T06:03:20.875Z,4
2018-11-02T06:04:22.264Z,4
2018-11-02T06:05:23.637Z,4
2018-11-02T06:06:25.025Z,4
2018-11-02T06:07:26.412Z,4
2018-11-02T06:08:27.835Z,4
2018-11-02T06:09:29.179Z,8
2018-11-02T06:10:30.563Z,8
2018-11-02T06:11:31.948Z,12
2018-11-02T06:12:33.346Z,12
2018-11-02T06:13:34.739Z,12
2018-11-02T06:14:36.118Z,12
2018-11-02T06:15:37.503Z,16
2018-11-02T06:16:38.922Z,16
2018-11-02T06:17:40.275Z,16
2018-11-02T06:18:41.716Z,20
2018-11-02T06:19:43.049Z,24
2018-11-02T06:20:44.435Z,28
2018-11-02T06:21:45.823Z,28
2018-11-02T06:22:47.206Z,32
2018-11-02T06:23:48.590Z,40
2018-11-02T06:24:49.975Z,48
2018-11-02T06:25:51.367Z,52
2018-11-02T06:26:52.754Z,60
2018-11-02T06:27:54.145Z,64
2018-11-02T06:28:55.540Z,68
2018-11-02T06:29:56.918Z,68
2018-11-02T06:30:58.301Z,72
2018-11-02T06:31:59.690Z,76
2018-11-02T06:33:01.075Z,80
2018-11-02T06:34:02.460Z,88
2018-11-02T06:35:03.843Z,92
2018-11-02T06:36:05.277Z,100
2018-11-02T06:37:06.709Z,108
2018-11-02T06:38:08.095Z,112
2018-11-02T06:39:09.481Z,116
2018-11-02T06:40:10.871Z,124
2018-11-02T06:41:12.263Z,132
2018-11-02T06:42:13.650Z,140
2018-11-02T06:43:15.041Z,136
2018-11-02T06:44:16.436Z,140
2018-11-02T06:45:17.878Z,144
2018-11-02T06:46:19.210Z,148
2018-11-02T06:47:20.599Z,152
2018-11-02T06:48:21.985Z,152
2018-11-02T06:49:23.372Z,160
2018-11-02T06:50:24.766Z,168
2018-11-02T06:51:26.147Z,188
2018-11-02T06:52:27.531Z,204
2018-11-02T06:53:28.923Z,220
2018-11-02T06:54:30.309Z,232
2018-11-02T06:55:31.701Z,236
2018-11-02T06:56:33.091Z,240
2018-11-02T06:57:34.480Z,248
2018-11-02T06:58:35.866Z,256
2018-11-02T06:59:37.412Z,264
2018-11-02T07:00:38.762Z,284
2018-11-02T07:01:40.050Z,304
2018-11-02T07:02:41.437Z,316
2018-11-02T07:03:42.826Z,316
2018-11-02T07:04:44.216Z,316
2018-11-02T07:05:45.604Z,324
2018-11-02T07:06:46.990Z,328
2018-11-02T07:07:48.617Z,344
2018-11-02T07:08:49.807Z,364
2018-11-02T07:09:51.197Z,380
2018-11-02T07:10:52.585Z,396
2018-11-02T07:11:53.982Z,408
2018-11-02T07:12:55.366Z,436
2018-11-02T07:13:56.754Z,460
2018-11-02T07:14:58.140Z,452
2018-11-02T07:15:59.528Z,476
2018-11-02T07:17:00.922Z,524
2018-11-02T07:18:02.312Z,556
2018-11-02T07:19:03.704Z,576
2018-11-02T07:20:05.153Z,544
2018-11-02T07:21:06.537Z,612
2018-11-02T07:22:07.932Z,636
2018-11-02T07:23:09.403Z,608
2018-11-02T07:24:10.797Z,616
2018-11-02T07:25:12.358Z,604
2018-11-02T07:26:13.690Z,516
2018-11-02T07:27:15.077Z,456
2018-11-02T07:28:16.464Z,528
2018-11-02T07:29:17.950Z,620
2018-11-02T07:30:19.336Z,644
2018-11-02T07:31:20.725Z,672
2018-11-02T07:32:22.117Z,652
2018-11-02T07:33:23.509Z,596
2018-11-02T07:34:24.982Z,624
2018-11-02T07:35:26.316Z,752
2018-11-02T07:36:27.703Z,820
2018-11-02T07:37:29.088Z,836
2018-11-02T07:38:30.511Z,808
2018-11-02T07:39:31.901Z,796
2018-11-02T07:40:33.294Z,796
2018-11-02T07:41:34.684Z,820
2018-11-02T07:42:36.122Z,872
2018-11-02T07:43:37.512Z,948
2018-11-02T07:44:38.899Z,956
2018-11-02T07:45:40.325Z,912
2018-11-02T07:46:41.719Z,876
2018-11-02T07:47:43.245Z,876
2018-11-02T07:48:44.526Z,944
2018-11-02T07:49:45.962Z,1004
2018-11-02T07:50:47.317Z,1020
2018-11-02T07:51:48.694Z,1060
2018-11-02T07:52:50.086Z,1128
2018-11-02T07:53:51.479Z,1192
2018-11-02T07:54:52.875Z,1252
2018-11-02T07:55:54.259Z,1348
2018-11-02T07:56:55.651Z,1424
2018-11-02T07:57:57.043Z,1436
2018-11-02T07:58:58.435Z,1464
2018-11-02T07:59:59.827Z,1480
2018-11-02T08:01:01.216Z,1496
2018-11-02T08:02:02.613Z,1484
2018-11-02T08:03:04.001Z,1488
2018-11-02T08:04:05.454Z,1504
2018-11-02T08:05:06.780Z,1512
2018-11-02T08:06:08.168Z,1552
2018-11-02T08:07:09.559Z,1552
2018-11-02T08:08:10.954Z,1584
2018-11-02T08:09:12.343Z,1552
2018-11-02T08:10:13.770Z,1568
2018-11-02T08:11:15.157Z,1680
2018-11-02T08:12:16.542Z,1764
2018-11-02T08:13:17.931Z,1784
2018-11-02T08:14:19.446Z,1824
2018-11-02T08:15:20.908Z,1864
2018-11-02T08:16:22.300Z,1916
2018-11-02T08:17:23.696Z,1916
2018-11-02T08:19:05.799Z,2020
2018-11-02T08:20:47.406Z,2092
2018-11-02T08:21:48.796Z,2012
2018-11-02T08:23:10.405Z,2068
2018-11-02T08:24:11.792Z,2364
2018-11-02T08:25:34.338Z,2580
2018-11-02T08:26:35.732Z,2536
2018-11-02T08:27:57.300Z,2512
2018-11-02T08:28:58.689Z,2528
2018-11-02T08:30:21.271Z,2544
2018-11-02T08:31:22.660Z,2428
2018-11-02T08:32:44.217Z,2144
2018-11-02T08:33:45.610Z,2024
2018-11-02T08:35:08.177Z,2264
2018-11-02T08:36:09.564Z,2308
2018-11-02T08:37:31.124Z,2532
2018-11-02T08:38:32.515Z,2760
2018-11-02T08:39:55.135Z,2904
2018-11-02T08:40:56.501Z,3108
2018-11-02T08:42:19.057Z,2904
2018-11-02T08:43:20.444Z,2844
2018-11-02T08:44:42.039Z,2888
2018-11-02T08:45:43.504Z,2908
2018-11-02T08:47:05.074Z,3068
2018-11-02T08:48:06.464Z,3124
2018-11-02T08:49:29.121Z,3420
2018-11-02T08:50:30.513Z,3408
2018-11-02T08:51:53.070Z,4236
2018-11-02T08:52:54.496Z,4724
2018-11-02T08:54:17.085Z,4120
2018-11-02T08:55:18.474Z,4408
2018-11-02T08:56:19.864Z,5204
2018-11-02T08:57:21.255Z,4184
2018-11-02T08:58:22.858Z,4308
2018-11-02T08:59:24.260Z,4412
2018-11-02T09:00:25.565Z,4028
2018-11-02T09:01:26.951Z,3972
2018-11-02T09:02:28.339Z,4024
2018-11-02T09:03:29.729Z,3980
2018-11-02T09:04:31.120Z,4172
2018-11-02T09:05:32.531Z,3916
2018-11-02T09:06:33.921Z,3872
2018-11-02T09:07:35.310Z,3920
2018-11-02T09:08:36.731Z,3920
2018-11-02T09:09:38.123Z,3892
2018-11-02T09:10:39.512Z,3816
2018-11-02T09:11:40.902Z,3748
2018-11-02T09:12:42.295Z,3568
2018-11-02T09:13:43.685Z,3392
2018-11-02T09:14:45.077Z,3504
2018-11-02T09:15:46.471Z,3636
2018-11-02T09:16:47.859Z,3612
2018-11-02T09:17:49.250Z,3400
2018-11-02T09:18:50.662Z,3280
2018-11-02T09:19:52.037Z,3280
2018-11-02T09:20:53.427Z,3288
2018-11-02T09:21:54.821Z,3180
2018-11-02T09:22:56.212Z,2976
2018-11-02T09:23:57.603Z,2876
2018-11-02T09:24:58.995Z,2780
2018-11-02T09:26:00.392Z,2600
2018-11-02T09:27:01.801Z,2516
2018-11-02T09:28:03.225Z,2304
2018-11-02T09:29:04.603Z,2256
2018-11-02T09:30:05.963Z,2212
2018-11-02T09:31:07.357Z,2200
2018-11-02T09:32:08.743Z,2212
2018-11-02T09:33:10.133Z,2252
2018-11-02T09:34:11.522Z,2260
2018-11-02T09:35:12.913Z,2256
2018-11-02T09:36:14.308Z,2232
2018-11-02T09:37:15.696Z,2188
2018-11-02T09:38:17.083Z,2132
2018-11-02T09:39:18.473Z,2120
2018-11-02T09:40:19.932Z,2152
2018-11-02T09:41:21.253Z,2220
2018-11-02T09:42:22.653Z,2292
2018-11-02T09:43:24.035Z,2356
2018-11-02T09:44:25.434Z,2368
2018-11-02T09:45:26.878Z,2388
2018-11-02T09:46:28.267Z,2388
2018-11-02T09:47:29.762Z,2380
2018-11-02T09:48:31.172Z,2404
2018-11-02T09:49:32.560Z,2416
2018-11-02T09:50:33.953Z,2360
2018-11-02T09:51:35.434Z,2244
2018-11-02T09:52:36.734Z,2084
2018-11-02T09:53:38.122Z,2100
2018-11-02T09:54:39.540Z,2152
2018-11-02T09:55:40.934Z,2172
2018-11-02T09:56:42.322Z,2152
2018-11-02T09:57:43.815Z,2096
2018-11-02T09:58:45.109Z,2016
2018-11-02T09:59:46.502Z,1900
2018-11-02T10:00:48.048Z,1792
2018-11-02T10:01:49.475Z,1656
2018-11-02T10:02:50.839Z,1532
2018-11-02T10:03:52.232Z,1472
2018-11-02T10:04:53.619Z,1428
2018-11-02T10:05:55.016Z,1428
2018-11-02T10:06:56.405Z,1508
2018-11-02T10:07:57.794Z,1580
2018-11-02T10:08:59.236Z,1592
2018-11-02T10:10:00.571Z,1548
2018-11-02T10:11:01.961Z,1572
2018-11-02T10:12:03.353Z,1648
2018-11-02T10:13:04.746Z,1724
2018-11-02T10:14:06.136Z,1800
2018-11-02T10:15:07.520Z,1880
2018-11-02T10:16:08.920Z,1912
2018-11-02T10:17:10.300Z,1892
2018-11-02T10:18:11.691Z,1932
2018-11-02T10:19:13.084Z,1944
2018-11-02T10:20:14.474Z,1904
2018-11-02T10:21:15.865Z,1848
2018-11-02T10:22:17.260Z,1848
2018-11-02T10:23:18.643Z,1880
2018-11-02T10:24:20.032Z,1952
2018-11-02T10:25:21.426Z,1980
2018-11-02T10:26:22.819Z,1896
2018-11-02T10:27:24.204Z,1856
2018-11-02T10:28:25.589Z,1864
2018-11-02T10:29:26.980Z,1848
2018-11-02T10:30:28.368Z,1872
2018-11-02T10:31:29.757Z,1912
2018-11-02T10:32:31.153Z,1968
2018-11-02T10:33:32.546Z,1944
2018-11-02T10:34:33.933Z,1972
2018-11-02T10:35:35.400Z,2048
2018-11-02T10:36:36.713Z,2052
2018-11-02T10:37:38.185Z,2064
2018-11-02T10:38:39.595Z,2100
2018-11-02T10:39:41.003Z,2128
2018-11-02T10:40:42.379Z,2180
2018-11-02T10:41:43.771Z,2264
2018-11-02T10:42:45.162Z,2404
2018-11-02T10:43:46.553Z,2596
2018-11-02T10:44:47.999Z,2740
2018-11-02T10:45:49.331Z,2856
2018-11-02T10:46:50.723Z,2828
2018-11-02T10:47:52.115Z,2880
2018-11-02T10:48:53.506Z,3072
2018-11-02T10:49:54.897Z,3228
2018-11-02T10:50:56.288Z,3472
2018-11-02T10:51:57.678Z,4132
2018-11-02T10:52:59.068Z,4132
2018-11-02T10:54:00.461Z,4656
2018-11-02T10:55:01.852Z,4596
2018-11-02T10:56:03.243Z,4268
2018-11-02T10:57:04.631Z,3860
2018-11-02T10:58:06.026Z,3484
2018-11-02T10:59:07.410Z,3416
2018-11-02T11:00:08.802Z,3268
2018-11-02T11:01:10.419Z,3744
2018-11-02T11:02:11.588Z,4248
2018-11-02T11:03:12.982Z,4824
2018-11-02T11:04:14.371Z,4524
2018-11-02T11:05:15.783Z,4636
2018-11-02T11:06:17.157Z,4844
2018-11-02T11:07:18.550Z,5592
2018-11-02T11:08:19.944Z,5136
2018-11-02T11:09:21.333Z,4372
2018-11-02T11:10:22.726Z,3880
2018-11-02T11:11:24.162Z,5188
2018-11-02T11:12:25.612Z,4456
2018-11-02T11:13:27.195Z,9604
2018-11-02T11:14:28.292Z,6788
2018-11-02T11:15:29.685Z,9052
2018-11-02T11:16:31.077Z,5616
2018-11-02T11:17:32.470Z,5332
2018-11-02T11:18:33.862Z,5032
2018-11-02T11:19:35.252Z,4400
2018-11-02T11:20:36.646Z,4952
2018-11-02T11:21:38.038Z,6064
2018-11-02T11:22:39.430Z,5424
2018-11-02T11:23:40.824Z,5060
2018-11-02T11:24:42.217Z,3888
2018-11-02T11:25:43.609Z,3076
2018-11-02T11:26:45.237Z,2524
2018-11-02T11:27:46.691Z,2428
2018-11-02T11:28:48.081Z,2380
2018-11-02T11:29:49.476Z,2436
2018-11-02T11:30:50.869Z,2564
2018-11-02T11:31:52.375Z,2416
2018-11-02T11:32:53.785Z,2104
2018-11-02T11:33:55.178Z,1948
2018-11-02T11:34:56.569Z,1744
2018-11-02T11:35:57.958Z,1620
2018-11-02T11:36:59.354Z,1516
2018-11-02T11:38:00.743Z,1448
2018-11-02T11:39:02.190Z,1428
2018-11-02T11:40:03.579Z,1620
2018-11-02T11:41:04.966Z,1900
2018-11-02T11:42:06.424Z,1916
2018-11-02T11:43:07.816Z,1696
2018-11-02T11:44:09.204Z,1500
2018-11-02T11:45:10.625Z,1356
2018-11-02T11:46:12.019Z,1168
2018-11-02T11:47:13.411Z,1164
2018-11-02T11:48:14.858Z,1288
2018-11-02T11:49:16.340Z,1304
2018-11-02T11:50:17.644Z,1272
2018-11-02T11:51:19.033Z,1304
2018-11-02T11:52:20.431Z,1312
2018-11-02T11:53:21.819Z,1308
2018-11-02T11:54:23.322Z,1460
2018-11-02T11:55:24.692Z,1720
2018-11-02T11:56:26.083Z,1720
2018-11-02T11:57:27.491Z,1776
2018-11-02T11:58:28.887Z,1828
2018-11-02T11:59:30.278Z,1760
2018-11-02T12:00:31.696Z,1732
2018-11-02T12:01:33.088Z,1768
2018-11-02T12:02:34.476Z,1808
2018-11-02T12:03:35.888Z,1776
2018-11-02T12:04:37.292Z,1604
2018-11-02T12:05:38.669Z,1480
2018-11-02T12:06:40.057Z,1448
2018-11-02T12:07:41.446Z,1492
2018-11-02T12:08:42.835Z,1572
2018-11-02T12:09:44.258Z,1540
2018-11-02T12:10:45.650Z,1464
2018-11-02T12:11:47.040Z,1452
2018-11-02T12:12:48.452Z,1512
2018-11-02T12:13:49.841Z,1632
2018-11-02T12:14:51.267Z,1796
2018-11-02T12:15:52.774Z,1632
2018-11-02T12:16:54.154Z,1372
2018-11-02T12:17:55.545Z,1172
2018-11-02T12:18:56.933Z,1132
2018-11-02T12:19:58.326Z,1116
2018-11-02T12:20:59.715Z,1032
2018-11-02T12:22:01.208Z,952
2018-11-02T12:23:02.495Z,900
2018-11-02T12:24:03.885Z,864
2018-11-02T12:25:05.278Z,880
2018-11-02T12:26:06.667Z,960
2018-11-02T12:27:08.061Z,1116
2018-11-02T12:28:09.474Z,1412
2018-11-02T12:29:10.879Z,1768
2018-11-02T12:30:12.273Z,2012
2018-11-02T12:31:13.667Z,2140
2018-11-02T12:32:15.093Z,2080
2018-11-02T12:33:16.484Z,2032
2018-11-02T12:34:17.923Z,2040
2018-11-02T12:35:19.315Z,2012
2018-11-02T12:36:20.712Z,2044
2018-11-02T12:37:22.100Z,2208
2018-11-02T12:38:23.491Z,2272
2018-11-02T12:39:24.880Z,2248
2018-11-02T12:40:26.295Z,2320
2018-11-02T12:41:27.672Z,2540
2018-11-02T12:42:29.065Z,2756
2018-11-02T12:43:30.557Z,3300
2018-11-02T12:44:31.870Z,2648
2018-11-02T12:45:33.262Z,2484
2018-11-02T12:46:34.668Z,2500
2018-11-02T12:47:36.068Z,2712
2018-11-02T12:48:37.510Z,3032
2018-11-02T12:49:39.191Z,3268
2018-11-02T12:50:40.324Z,3196
2018-11-02T12:51:41.641Z,2972
2018-11-02T12:52:43.034Z,2884
2018-11-02T12:53:44.429Z,2852
2018-11-02T12:54:46.303Z,2808
2018-11-02T12:55:47.680Z,2828
2018-11-02T12:56:49.074Z,2884
2018-11-02T12:57:50.466Z,2920
2018-11-02T12:58:51.860Z,3024
2018-11-02T12:59:53.266Z,3124
2018-11-02T13:00:54.655Z,3016
2018-11-02T13:01:56.049Z,2692
2018-11-02T13:02:57.504Z,2456
2018-11-02T13:03:59.022Z,2404
2018-11-02T13:05:00.415Z,2420
2018-11-02T13:06:01.814Z,2460
2018-11-02T13:07:03.228Z,2416
2018-11-02T13:08:04.587Z,2360
2018-11-02T13:09:05.979Z,2464
2018-11-02T13:10:07.369Z,2648
2018-11-02T13:11:08.782Z,2848
2018-11-02T13:12:10.174Z,3180
2018-11-02T13:13:11.581Z,3428
2018-11-02T13:14:13.095Z,3108
2018-11-02T13:15:14.481Z,2956
2018-11-02T13:16:15.873Z,3028
2018-11-02T13:17:17.267Z,3108
2018-11-02T13:18:18.665Z,2976
2018-11-02T13:19:20.054Z,2696
2018-11-02T13:20:21.471Z,2444
2018-11-02T13:21:22.838Z,2268
2018-11-02T13:22:24.307Z,2096
2018-11-02T13:23:25.622Z,2040
2018-11-02T13:24:27.011Z,2068
2018-11-02T13:25:28.415Z,2096
2018-11-02T13:26:29.996Z,2176
2018-11-02T13:27:31.338Z,2256
2018-11-02T13:28:32.717Z,2376
2018-11-02T13:29:34.110Z,2472
2018-11-02T13:30:35.546Z,2448
2018-11-02T13:31:36.946Z,2428
2018-11-02T13:32:38.291Z,2504
2018-11-02T13:33:39.752Z,2564
2018-11-02T13:34:41.141Z,2432
2018-11-02T13:35:42.530Z,2284
2018-11-02T13:36:44.044Z,2276
2018-11-02T13:37:45.312Z,2344
2018-11-02T13:38:46.705Z,2384
2018-11-02T13:39:48.093Z,2332
2018-11-02T13:40:49.490Z,2236
2018-11-02T13:41:50.882Z,2408
2018-11-02T13:42:52.366Z,1888
2018-11-02T13:43:53.664Z,1712
2018-11-02T13:44:55.061Z,1672
2018-11-02T13:45:56.451Z,1640
2018-11-02T13:46:57.841Z,1612
2018-11-02T13:47:59.236Z,1588
2018-11-02T13:49:00.625Z,1668
2018-11-02T13:50:02.017Z,1660
2018-11-02T13:51:03.409Z,1656
2018-11-02T13:52:04.905Z,1608
2018-11-02T13:53:06.311Z,1592
2018-11-02T13:54:07.703Z,1668
2018-11-02T13:55:09.098Z,1728
2018-11-02T13:56:10.485Z,1792
2018-11-02T13:57:11.880Z,1960
2018-11-02T13:58:13.296Z,1940
2018-11-02T13:59:14.744Z,1936
2018-11-02T14:00:16.139Z,1892
2018-11-02T14:01:17.542Z,1880
2018-11-02T14:02:18.872Z,1928
2018-11-02T14:03:20.284Z,2184
2018-11-02T14:04:21.674Z,2312
2018-11-02T14:05:23.070Z,2364
2018-11-02T14:06:24.461Z,2312
2018-11-02T14:07:25.855Z,2364
2018-11-02T14:08:27.253Z,2448
2018-11-02T14:09:28.648Z,2632
2018-11-02T14:10:30.038Z,2180
2018-11-02T14:11:31.485Z,2176
2018-11-02T14:12:32.827Z,2208
2018-11-02T14:13:34.224Z,2196
2018-11-02T14:14:35.609Z,2620
2018-11-02T14:15:37.003Z,2240
2018-11-02T14:16:38.399Z,2200
2018-11-02T14:17:39.787Z,3156
2018-11-02T14:18:41.175Z,2648
2018-11-02T14:19:42.571Z,2408
2018-11-02T14:20:43.960Z,1752
2018-11-02T14:21:45.354Z,1664
2018-11-02T14:22:46.745Z,1684
2018-11-02T14:23:48.142Z,2204